createdAt,value
2018-05-08T00:01:00.720Z,54.40
2018-05-08T00:03:28.987Z,54.40
2018-05-08T00:05:57.301Z,54.60
2018-05-08T00:08:25.566Z,54.60
2018-05-08T00:10:53.846Z,54.70
2018-05-08T00:13:22.111Z,54.60
2018-05-08T00:15:50.393Z,54.70
2018-05-08T00:18:18.653Z,54.80
2018-05-08T00:20:47.100Z,54.80
2018-05-08T00:23:15.345Z,54.80
2018-05-08T00:25:44.509Z,55.10
2018-05-08T00:28:13.703Z,55.00
2018-05-08T00:30:41.952Z,54.90
2018-05-08T00:33:10.234Z,55.10
2018-05-08T00:35:38.493Z,55.10
2018-05-08T00:38:06.789Z,55.20
2018-05-08T00:40:35.082Z,55.30
2018-05-08T00:43:04.130Z,55.40
2018-05-08T00:45:32.386Z,55.40
2018-05-08T00:48:00.670Z,55.50
2018-05-08T00:50:28.918Z,55.60
2018-05-08T00:52:57.200Z,55.60
2018-05-08T00:55:26.218Z,55.90
2018-05-08T00:57:54.511Z,55.80
2018-05-08T01:00:22.775Z,55.80
2018-05-08T01:02:51.031Z,55.90
2018-05-08T01:05:19.319Z,55.90
2018-05-08T01:07:47.568Z,56.00
2018-05-08T01:10:15.843Z,56.10
2018-05-08T01:12:44.102Z,56.20
2018-05-08T01:15:12.385Z,56.30
2018-05-08T01:17:40.652Z,56.30
2018-05-08T01:20:08.993Z,56.50
2018-05-08T01:22:37.229Z,56.50
2018-05-08T01:25:06.256Z,56.70
2018-05-08T01:27:35.326Z,56.90
2018-05-08T01:30:03.569Z,57.10
2018-05-08T01:32:31.857Z,56.80
2018-05-08T01:35:00.108Z,56.80
2018-05-08T01:37:28.889Z,56.90
2018-05-08T01:39:58.711Z,57.00
2018-05-08T01:42:28.199Z,57.00
2018-05-08T01:44:56.452Z,57.00
2018-05-08T01:47:25.465Z,57.10
2018-05-08T01:49:53.762Z,57.00
2018-05-08T01:52:22.018Z,57.10
2018-05-08T01:54:50.301Z,57.20
2018-05-08T01:57:18.634Z,57.10
2018-05-08T01:59:46.955Z,57.30
2018-05-08T02:02:15.207Z,57.50
2018-05-08T02:04:44.254Z,57.60
2018-05-08T02:07:12.517Z,57.60
2018-05-08T02:09:40.819Z,57.70
2018-05-08T02:12:09.887Z,57.80
2018-05-08T02:14:38.113Z,57.80
2018-05-08T02:17:06.391Z,57.90
2018-05-08T02:19:34.663Z,57.90
2018-05-08T02:22:02.948Z,58.60
2018-05-08T02:24:31.977Z,58.10
2018-05-08T02:27:00.819Z,58.00
2018-05-08T02:29:29.082Z,58.10
2018-05-08T02:31:57.365Z,58.10
2018-05-08T02:34:25.618Z,58.30
2018-05-08T02:36:54.832Z,58.20
2018-05-08T02:39:23.120Z,58.30
2018-05-08T02:41:51.379Z,58.20
2018-05-08T02:44:20.445Z,58.20
2018-05-08T02:46:49.470Z,58.30
2018-05-08T02:49:17.751Z,58.30
2018-05-08T02:51:46.005Z,58.30
2018-05-08T02:54:14.338Z,58.40
2018-05-08T02:56:42.608Z,58.50
2018-05-08T02:59:10.876Z,58.50
2018-05-08T03:01:39.165Z,58.50
2018-05-08T03:04:07.436Z,58.60
2018-05-08T03:06:35.710Z,58.90
2018-05-08T03:09:04.037Z,58.80
2018-05-08T03:11:32.310Z,58.70
2018-05-08T03:14:00.582Z,58.70
2018-05-08T03:16:28.871Z,58.70
2018-05-08T03:18:57.138Z,58.80
2018-05-08T03:21:26.174Z,58.80
2018-05-08T03:23:54.503Z,58.80
2018-05-08T03:26:22.763Z,58.80
2018-05-08T03:28:51.030Z,58.80
2018-05-08T03:31:19.281Z,58.80
2018-05-08T03:33:47.599Z,58.70
2018-05-08T03:36:16.615Z,58.90
2018-05-08T03:38:45.630Z,58.80
2018-05-08T03:41:13.910Z,58.80
2018-05-08T03:43:42.175Z,58.90
2018-05-08T03:46:11.905Z,58.90
2018-05-08T03:48:40.167Z,58.90
2018-05-08T03:51:09.233Z,58.90
2018-05-08T03:53:37.507Z,58.90
2018-05-08T03:56:05.781Z,59.00
2018-05-08T03:58:34.046Z,59.00
2018-05-08T04:01:14.050Z,59.00
2018-05-08T04:03:54.167Z,59.10
2018-05-08T04:06:56.047Z,59.00
2018-05-08T04:09:24.322Z,58.90
2018-05-08T04:11:52.610Z,59.50
2018-05-08T04:14:20.883Z,59.10
2018-05-08T04:16:49.954Z,59.20
2018-05-08T04:19:18.286Z,59.20
2018-05-08T04:21:47.275Z,59.30
2018-05-08T04:24:16.395Z,59.30
2018-05-08T04:26:44.670Z,59.30
2018-05-08T04:29:12.944Z,59.30
2018-05-08T04:31:41.190Z,59.60
2018-05-08T04:34:09.475Z,59.60
2018-05-08T04:36:38.510Z,59.80
2018-05-08T04:39:06.805Z,59.80
2018-05-08T04:41:35.063Z,59.80
2018-05-08T04:44:03.320Z,59.90
2018-05-08T04:46:31.602Z,60.00
2018-05-08T04:48:59.846Z,59.90
2018-05-08T04:51:28.893Z,60.10
2018-05-08T04:53:58.123Z,60.00
2018-05-08T04:56:26.422Z,60.00
2018-05-08T04:58:54.685Z,60.10
2018-05-08T05:01:22.974Z,60.20
2018-05-08T05:03:51.214Z,60.20
2018-05-08T05:06:19.539Z,60.30
2018-05-08T05:08:47.782Z,60.40
2018-05-08T05:11:16.050Z,60.50
2018-05-08T05:13:44.336Z,60.40
2018-05-08T05:16:12.598Z,60.40
2018-05-08T05:18:40.906Z,60.40
2018-05-08T05:21:09.184Z,60.50
2018-05-08T05:23:37.495Z,60.50
2018-05-08T05:26:06.530Z,60.40
2018-05-08T05:28:34.813Z,60.40
2018-05-08T05:31:03.089Z,60.30
2018-05-08T05:33:31.415Z,60.40
2018-05-08T05:35:59.667Z,60.40
2018-05-08T05:38:28.776Z,60.30
2018-05-08T05:40:57.042Z,60.30
2018-05-08T05:43:25.299Z,60.10
2018-05-08T05:45:53.595Z,60.00
2018-05-08T05:48:21.878Z,60.00
2018-05-08T05:50:50.163Z,60.00
2018-05-08T05:53:18.432Z,59.90
2018-05-08T05:55:46.714Z,60.50
2018-05-08T05:58:15.871Z,59.70
2018-05-08T06:00:44.161Z,59.70
2018-05-08T06:03:12.422Z,59.60
2018-05-08T06:05:42.400Z,59.50
2018-05-08T06:08:11.433Z,59.60
2018-05-08T06:10:39.721Z,59.20
2018-05-08T06:13:07.970Z,59.20
2018-05-08T06:15:36.257Z,59.10
2018-05-08T06:18:05.433Z,58.90
2018-05-08T06:20:34.501Z,58.70
2018-05-08T06:23:02.751Z,58.70
2018-05-08T06:25:31.013Z,58.60
2018-05-08T06:27:59.312Z,58.40
2018-05-08T06:30:27.600Z,58.40
2018-05-08T06:32:55.878Z,58.30
2018-05-08T06:35:24.134Z,58.10
2018-05-08T06:37:52.417Z,57.80
2018-05-08T06:40:20.666Z,57.50
2018-05-08T06:42:48.981Z,57.30
2018-05-08T06:45:17.225Z,57.20
2018-05-08T06:47:45.589Z,57.00
2018-05-08T06:50:13.842Z,56.90
2018-05-08T06:52:42.117Z,56.70
2018-05-08T06:55:10.368Z,56.30
2018-05-08T06:57:38.701Z,56.20
2018-05-08T07:00:06.931Z,56.00
2018-05-08T07:02:35.185Z,56.00
2018-05-08T07:05:04.256Z,55.90
2018-05-08T07:07:33.285Z,55.60
2018-05-08T07:10:01.585Z,55.60
2018-05-08T07:12:29.838Z,55.50
2018-05-08T07:14:58.157Z,55.30
2018-05-08T07:17:26.705Z,55.40
2018-05-08T07:19:54.934Z,55.00
2018-05-08T07:22:23.993Z,54.70
2018-05-08T07:24:52.254Z,54.80
2018-05-08T07:27:20.566Z,54.50
2018-05-08T07:29:48.806Z,54.40
2018-05-08T07:32:17.087Z,54.10
2018-05-08T07:34:45.375Z,54.00
2018-05-08T07:37:13.632Z,53.80
2018-05-08T07:39:41.933Z,53.50
2018-05-08T07:42:10.215Z,53.30
2018-05-08T07:44:38.491Z,53.20
2018-05-08T07:47:06.767Z,53.10
2018-05-08T07:49:35.499Z,52.90
2018-05-08T07:52:04.514Z,52.10
2018-05-08T07:54:33.328Z,52.10
2018-05-08T07:57:01.613Z,51.90
2018-05-08T07:59:29.863Z,51.70
2018-05-08T08:01:58.162Z,51.70
2018-05-08T08:04:26.440Z,51.40
2018-05-08T08:06:54.738Z,51.00
2018-05-08T08:09:23.034Z,50.70
2018-05-08T08:11:51.293Z,51.20
2018-05-08T08:14:19.584Z,50.40
2018-05-08T08:16:48.200Z,49.90
2018-05-08T08:19:17.261Z,48.80
2018-05-08T08:21:45.521Z,48.80
2018-05-08T08:24:13.900Z,47.90
2018-05-08T08:26:42.169Z,47.40
2018-05-08T08:29:10.570Z,47.20
2018-05-08T08:31:38.891Z,46.80
2018-05-08T08:34:07.161Z,45.70
2018-05-08T08:36:36.205Z,45.00
2018-05-08T08:39:04.523Z,44.90
2018-05-08T08:41:32.776Z,44.80
2018-05-08T08:44:01.075Z,43.90
2018-05-08T08:46:30.209Z,43.10
2018-05-08T08:48:58.397Z,43.00
2018-05-08T08:51:26.709Z,43.10
2018-05-08T08:53:54.988Z,42.80
2018-05-08T08:56:23.268Z,42.40
2018-05-08T08:58:51.530Z,42.30
2018-05-08T09:01:19.820Z,42.20
2018-05-08T09:03:48.085Z,42.00
2018-05-08T09:06:16.380Z,42.00
2018-05-08T09:08:44.644Z,41.50
2018-05-08T09:11:13.006Z,40.90
2018-05-08T09:13:42.006Z,40.60
2018-05-08T09:16:10.288Z,40.60
2018-05-08T09:18:38.596Z,40.50
2018-05-08T09:21:06.872Z,40.90
2018-05-08T09:23:35.973Z,40.70
2018-05-08T09:26:04.250Z,40.70
2018-05-08T09:28:32.526Z,41.40
2018-05-08T09:31:00.829Z,40.70
2018-05-08T09:33:29.856Z,41.10
2018-05-08T09:35:58.160Z,41.10
2018-05-08T09:38:26.413Z,41.00
2018-05-08T09:40:55.266Z,40.70
2018-05-08T09:43:24.316Z,40.80
2018-05-08T09:45:52.572Z,40.80
2018-05-08T09:48:21.634Z,41.30
2018-05-08T09:50:49.881Z,40.80
2018-05-08T09:53:18.170Z,40.50
2018-05-08T09:55:46.464Z,40.40
2018-05-08T09:58:14.757Z,40.10
2018-05-08T10:00:43.039Z,39.40
2018-05-08T10:03:11.322Z,39.50
2018-05-08T10:05:40.482Z,39.70
2018-05-08T10:08:08.739Z,39.80
2018-05-08T10:10:37.028Z,39.90
2018-05-08T10:13:06.096Z,39.50
2018-05-08T10:15:34.393Z,39.50
2018-05-08T10:18:02.775Z,39.60
2018-05-08T10:20:31.128Z,39.40
2018-05-08T10:22:59.400Z,39.30
2018-05-08T10:25:27.729Z,39.30
2018-05-08T10:27:56.777Z,39.50
2018-05-08T10:30:25.047Z,39.50
2018-05-08T10:32:53.346Z,39.00
2018-05-08T10:35:21.603Z,38.80
2018-05-08T10:37:49.891Z,38.60
2018-05-08T10:40:18.155Z,38.70
2018-05-08T10:42:46.518Z,38.60
2018-05-08T10:45:14.727Z,38.60
2018-05-08T10:47:43.114Z,38.70
2018-05-08T10:50:11.303Z,38.40
2018-05-08T10:52:40.240Z,38.20
2018-05-08T10:55:09.300Z,37.70
2018-05-08T10:57:37.576Z,37.70
2018-05-08T11:00:06.631Z,37.90
2018-05-08T11:02:34.903Z,37.90
2018-05-08T11:05:03.189Z,37.70
2018-05-08T11:07:31.451Z,37.70
2018-05-08T11:10:01.451Z,37.60
2018-05-08T11:12:29.845Z,37.60
2018-05-08T11:14:58.062Z,37.60
2018-05-08T11:17:26.340Z,37.60
2018-05-08T11:19:54.587Z,37.40
2018-05-08T11:22:22.907Z,37.30
2018-05-08T11:24:51.183Z,37.30
2018-05-08T11:27:20.340Z,37.10
2018-05-08T11:29:48.595Z,37.20
2018-05-08T11:32:16.923Z,36.90
2018-05-08T11:34:45.183Z,36.80
2018-05-08T11:37:13.447Z,35.70
2018-05-08T11:39:42.648Z,34.70
2018-05-08T11:42:10.934Z,34.50
2018-05-08T11:44:39.305Z,33.20
2018-05-08T11:47:07.514Z,32.70
2018-05-08T11:49:35.800Z,31.90
2018-05-08T11:52:04.923Z,31.40
2018-05-08T11:54:33.253Z,30.40
2018-05-08T11:57:01.542Z,30.00
2018-05-08T11:59:29.812Z,29.50
2018-05-08T12:01:58.125Z,29.50
2018-05-08T12:04:26.392Z,29.50
2018-05-08T12:06:55.364Z,28.70
2018-05-08T12:09:23.654Z,28.30
2018-05-08T12:11:52.668Z,28.10
2018-05-08T12:14:20.959Z,27.50
2018-05-08T12:16:49.249Z,27.10
2018-05-08T12:19:17.552Z,26.70
2018-05-08T12:21:45.921Z,26.60
2018-05-08T12:24:14.155Z,26.60
2018-05-08T12:26:42.482Z,25.90
2018-05-08T12:29:11.661Z,25.40
2018-05-08T12:31:39.912Z,25.40
2018-05-08T12:34:08.206Z,25.40
2018-05-08T12:36:37.272Z,25.50
2018-05-08T12:39:05.568Z,25.40
2018-05-08T12:41:34.096Z,25.10
2018-05-08T12:44:02.513Z,25.00
2018-05-08T12:46:31.512Z,24.20
2018-05-08T12:48:59.761Z,24.20
2018-05-08T12:51:28.073Z,24.30
2018-05-08T12:53:56.333Z,24.20
2018-05-08T12:56:24.624Z,24.30
2018-05-08T12:58:52.901Z,24.30
2018-05-08T13:01:21.179Z,24.40
2018-05-08T13:03:49.445Z,24.60
2018-05-08T13:06:17.716Z,24.30
2018-05-08T13:08:46.041Z,24.30
2018-05-08T13:11:14.325Z,24.40
2018-05-08T13:13:42.584Z,24.00
2018-05-08T13:16:12.409Z,24.50
2018-05-08T13:18:40.749Z,24.00
2018-05-08T13:21:09.041Z,24.10
2018-05-08T13:23:37.316Z,23.90
2018-05-08T13:26:05.594Z,23.80
2018-05-08T13:28:33.917Z,23.80
2018-05-08T13:31:02.227Z,23.50
2018-05-08T13:33:30.493Z,23.50
2018-05-08T13:35:59.521Z,23.40
2018-05-08T13:38:27.870Z,23.40
2018-05-08T13:40:56.948Z,23.30
2018-05-08T13:43:25.319Z,23.20
2018-05-08T13:45:54.525Z,23.20
2018-05-08T13:48:22.917Z,23.20
2018-05-08T13:50:51.991Z,22.90
2018-05-08T13:53:20.242Z,23.30
2018-05-08T13:55:48.837Z,22.70
2018-05-08T13:58:17.824Z,22.80
2018-05-08T14:00:46.113Z,22.90
2018-05-08T14:03:14.391Z,22.70
2018-05-08T14:05:42.661Z,22.70
2018-05-08T14:08:11.098Z,22.70
2018-05-08T14:10:39.393Z,22.40
2018-05-08T14:13:07.738Z,22.60
2018-05-08T14:15:35.991Z,22.90
2018-05-08T14:18:04.326Z,23.00
2018-05-08T14:20:32.608Z,23.00
2018-05-08T14:23:00.916Z,23.10
2018-05-08T14:25:29.219Z,23.00
2018-05-08T14:27:58.259Z,23.10
2018-05-08T14:30:26.578Z,23.10
2018-05-08T14:32:54.941Z,22.80
2018-05-08T14:35:23.421Z,22.90
2018-05-08T14:37:51.788Z,22.90
2018-05-08T14:40:20.431Z,22.80
2018-05-08T14:42:49.747Z,22.70
2018-05-08T14:45:18.144Z,22.70
2018-05-08T14:47:46.610Z,22.90
2018-05-08T14:50:15.915Z,22.90
2018-05-08T14:52:45.116Z,23.00
2018-05-08T14:55:13.576Z,23.00
2018-05-08T14:57:43.036Z,22.90
2018-05-08T15:00:11.634Z,22.90
2018-05-08T15:02:40.307Z,22.80
2018-05-08T15:05:08.559Z,22.70
2018-05-08T15:07:36.870Z,23.00
2018-05-08T15:10:05.170Z,22.30
2018-05-08T15:12:33.633Z,22.20
2018-05-08T15:15:02.057Z,22.00
2018-05-08T15:17:30.445Z,22.10
2018-05-08T15:19:59.877Z,22.00
2018-05-08T15:22:28.453Z,22.00
2018-05-08T15:24:56.900Z,22.00
2018-05-08T15:27:25.955Z,22.10
2018-05-08T15:29:54.430Z,22.10
2018-05-08T15:32:22.778Z,22.10
2018-05-08T15:34:51.992Z,22.10
2018-05-08T15:37:20.287Z,22.30
2018-05-08T15:39:49.465Z,23.00
2018-05-08T15:42:17.775Z,23.00
2018-05-08T15:44:46.971Z,23.00
2018-05-08T15:47:15.458Z,23.00
2018-05-08T15:49:43.812Z,22.70
2018-05-08T15:52:12.240Z,22.80
2018-05-08T15:54:40.551Z,22.80
2018-05-08T15:57:08.862Z,22.90
2018-05-08T15:59:37.139Z,23.40
2018-05-08T16:02:05.489Z,22.90
2018-05-08T16:04:33.700Z,23.30
2018-05-08T16:07:01.953Z,23.30
2018-05-08T16:09:30.243Z,23.40
2018-05-08T16:11:58.565Z,23.40
2018-05-08T16:14:26.945Z,23.60
2018-05-08T16:16:55.249Z,23.60
2018-05-08T16:19:24.302Z,23.60
2018-05-08T16:21:52.610Z,23.70
2018-05-08T16:24:20.935Z,23.70
2018-05-08T16:26:49.902Z,23.90
2018-05-08T16:29:18.950Z,23.70
2018-05-08T16:31:47.253Z,23.70
2018-05-08T16:34:15.495Z,23.70
2018-05-08T16:36:43.767Z,23.80
2018-05-08T16:39:12.061Z,23.90
2018-05-08T16:41:40.328Z,23.90
2018-05-08T16:44:08.706Z,23.90
2018-05-08T16:46:36.991Z,24.00
2018-05-08T16:49:05.306Z,24.10
2018-05-08T16:51:33.579Z,24.30
2018-05-08T16:54:02.651Z,24.70
2018-05-08T16:56:30.997Z,24.80
2018-05-08T16:58:59.460Z,24.80
2018-05-08T17:01:27.782Z,24.90
2018-05-08T17:03:56.276Z,25.30
2018-05-08T17:09:17.387Z,25.50
2018-05-08T17:11:45.799Z,25.50
2018-05-08T17:14:14.087Z,25.70
2018-05-08T17:16:42.343Z,25.80
2018-05-08T17:19:10.853Z,26.00
2018-05-08T17:21:38.929Z,26.10
2018-05-08T17:24:08.039Z,26.30
2018-05-08T17:26:37.074Z,26.20
2018-05-08T17:29:05.348Z,26.20
2018-05-08T17:31:34.513Z,26.30
2018-05-08T17:34:03.538Z,26.50
2018-05-08T17:36:31.836Z,26.60
2018-05-08T17:39:00.140Z,26.70
2018-05-08T17:41:28.441Z,26.80
2018-05-08T17:43:56.685Z,26.90
2018-05-08T17:46:24.973Z,27.10
2018-05-08T17:48:53.326Z,27.40
2018-05-08T17:51:21.564Z,27.50
2018-05-08T17:53:49.874Z,27.80
2018-05-08T17:56:18.159Z,28.00
2018-05-08T17:58:46.514Z,28.40
2018-05-08T18:01:14.826Z,28.60
2018-05-08T18:03:43.164Z,28.90
2018-05-08T18:06:11.541Z,29.10
2018-05-08T18:08:39.809Z,29.40
2018-05-08T18:11:09.096Z,29.60
2018-05-08T18:13:37.401Z,29.90
2018-05-08T18:16:05.695Z,30.10
2018-05-08T18:18:33.966Z,30.40
2018-05-08T18:21:03.058Z,31.10
2018-05-08T18:23:32.115Z,31.30
2018-05-08T18:26:01.167Z,31.70
2018-05-08T18:28:29.472Z,31.70
2018-05-08T18:30:58.712Z,32.30
2018-05-08T18:33:27.046Z,32.20
2018-05-08T18:35:55.339Z,32.60
2018-05-08T18:38:23.654Z,32.90
2018-05-08T18:40:51.933Z,33.10
2018-05-08T18:43:20.276Z,33.20
2018-05-08T18:45:48.619Z,33.50
2018-05-08T18:48:16.870Z,33.60
2018-05-08T18:50:45.383Z,34.50
2018-05-08T18:53:13.724Z,34.10
2018-05-08T18:55:42.797Z,34.30
2018-05-08T18:58:11.073Z,34.30
2018-05-08T19:00:45.141Z,34.40
2018-05-08T19:03:13.423Z,34.70
2018-05-08T19:05:42.875Z,34.70
2018-05-08T19:08:11.521Z,35.00
2018-05-08T19:10:39.930Z,35.00
2018-05-08T19:13:08.265Z,35.10
2018-05-08T19:15:42.354Z,35.30
2018-05-08T19:18:10.724Z,35.50
2018-05-08T19:20:39.095Z,35.70
2018-05-08T19:23:08.315Z,35.50
2018-05-08T19:25:37.436Z,36.30
2018-05-08T19:41:32.124Z,35.80
2018-05-08T19:44:02.255Z,35.90
2018-05-08T19:46:30.843Z,36.40
2018-05-08T19:48:59.160Z,37.00
2018-05-08T19:51:27.517Z,37.50
2018-05-08T19:53:55.863Z,38.00
2018-05-08T19:56:24.158Z,38.70
2018-05-08T19:58:52.477Z,38.90
2018-05-08T20:01:20.801Z,40.00
2018-05-08T20:03:49.122Z,39.80
2018-05-08T20:06:17.418Z,39.90
2018-05-08T20:08:45.921Z,40.00
2018-05-08T20:11:14.831Z,40.20
2018-05-08T20:13:44.061Z,40.50
2018-05-08T20:16:12.438Z,40.80
2018-05-08T20:18:42.884Z,41.20
2018-05-08T20:23:54.047Z,42.10
2018-05-08T20:26:25.952Z,42.00
2018-05-08T20:28:55.052Z,42.50
2018-05-08T20:31:25.336Z,42.50
2018-05-08T20:33:54.830Z,43.40
2018-05-08T20:36:23.231Z,42.80
2018-05-08T20:38:51.873Z,43.00
2018-05-08T20:41:21.124Z,43.40
2018-05-08T20:43:50.557Z,43.40
2018-05-08T20:46:19.730Z,43.50
2018-05-08T20:48:48.204Z,43.60
2018-05-08T20:51:16.620Z,43.50
2018-05-08T20:53:45.020Z,43.50
2018-05-08T20:56:13.416Z,43.50
2018-05-08T20:58:41.736Z,43.50
2018-05-08T21:01:10.084Z,43.60
2018-05-08T21:03:38.353Z,43.80
2018-05-08T21:06:06.682Z,44.00
2018-05-08T21:08:34.993Z,44.10
2018-05-08T21:11:04.113Z,44.30
2018-05-08T21:13:32.461Z,44.40
2018-05-08T21:16:01.066Z,44.50
2018-05-08T21:18:30.234Z,45.50
2018-05-08T21:20:58.604Z,44.90
2018-05-08T21:23:26.872Z,45.00
2018-05-08T21:25:55.147Z,45.10
2018-05-08T21:28:29.110Z,45.30
2018-05-08T21:31:03.173Z,45.50
2018-05-08T21:33:31.553Z,45.60
2018-05-08T21:35:59.866Z,45.60
2018-05-08T21:38:28.191Z,45.80
2018-05-08T21:40:56.546Z,46.60
2018-05-08T21:43:25.141Z,45.90
2018-05-08T21:45:53.425Z,46.00
2018-05-08T21:48:21.742Z,46.00
2018-05-08T21:50:50.000Z,46.10
2018-05-08T21:53:18.262Z,46.20
2018-05-08T21:55:46.551Z,46.20
2018-05-08T21:58:15.575Z,46.30
2018-05-08T22:00:43.866Z,46.30
2018-05-08T22:03:12.151Z,46.40
2018-05-08T22:05:41.226Z,46.50
2018-05-08T22:08:09.502Z,46.60
2018-05-08T22:10:37.796Z,46.70
2018-05-08T22:13:06.927Z,47.30
2018-05-08T22:15:35.175Z,46.80
2018-05-08T22:18:04.230Z,47.00
2018-05-08T22:20:32.541Z,47.10
2018-05-08T22:23:00.847Z,47.00
2018-05-08T22:25:29.877Z,47.30
2018-05-08T22:27:58.222Z,47.20
2018-05-08T22:30:27.290Z,47.20
2018-05-08T22:32:55.886Z,47.30
2018-05-08T22:35:25.068Z,47.30
2018-05-08T22:37:53.323Z,47.30
2018-05-08T22:40:21.605Z,47.40
2018-05-08T22:42:49.870Z,47.50
2018-05-08T22:45:20.618Z,47.50
2018-05-08T22:47:48.875Z,47.60
2018-05-08T22:50:17.177Z,47.70
2018-05-08T22:52:45.434Z,47.60
2018-05-08T22:55:13.861Z,47.70
2018-05-08T22:57:42.155Z,47.90
2018-05-08T23:00:11.184Z,48.00
2018-05-08T23:02:39.979Z,48.00
2018-05-08T23:05:08.244Z,48.10
2018-05-08T23:07:36.544Z,48.10
2018-05-08T23:10:04.790Z,48.20
2018-05-08T23:12:33.063Z,48.40
2018-05-08T23:15:01.340Z,48.60
2018-05-08T23:17:29.601Z,48.60
2018-05-08T23:19:58.655Z,48.60
2018-05-08T23:22:26.907Z,48.60
2018-05-08T23:24:55.208Z,48.60
2018-05-08T23:27:23.472Z,48.80
2018-05-08T23:29:51.769Z,48.80
2018-05-08T23:32:20.028Z,48.90
2018-05-08T23:34:48.275Z,48.90
2018-05-08T23:37:16.557Z,49.00
2018-05-08T23:39:44.905Z,49.10
2018-05-08T23:42:13.133Z,49.10
2018-05-08T23:44:41.385Z,49.20
2018-05-08T23:47:09.688Z,49.30
2018-05-08T23:49:38.579Z,49.40
2018-05-08T23:52:07.670Z,49.60
2018-05-08T23:54:35.954Z,49.60
2018-05-08T23:57:04.219Z,49.60
2018-05-08T23:59:32.504Z,49.70
